Time;durP1;ratioP1;P1;durP2;ratioP2;P2;SDS_P1;SDS_P2;PMS_P1;PMS_P2;Temp;Humidity;BMP_temperature;BMP_pressure;BME280_temperature;BME280_humidity;BME280_pressure;Samples;Min_cycle;Max_cycle;Signal;HPM_P1;HPM_P2
2023/12/19 00:01:21;;;;;;;18.80;13.90;;;;;;;;;;2611735;47;20444;-72
2023/12/19 00:03:47;;;;;;;17.57;13.30;;;;;;;;;;2611535;54;20421;-72
2023/12/19 00:06:13;;;;;;;24.63;16.70;;;;;;;;;;2612548;31;21141;-74
2023/12/19 00:08:39;;;;;;;23.83;14.73;;;;;;;;;;2612124;54;20380;-78
2023/12/19 00:11:05;;;;;;;19.33;13.40;;;;;;;;;;2611576;54;21143;-78
2023/12/19 00:13:31;;;;;;;23.07;16.37;;;;;;;;;;2611226;54;22656;-77
2023/12/19 00:15:57;;;;;;;14.43;10.03;;;;;;;;;;2610995;54;20570;-77
2023/12/19 00:18:23;;;;;;;20.27;13.67;;;;;;;;;;2611697;54;20554;-79
2023/12/19 00:20:52;;;;;;;15.37;8.77;;;;;;;;;;2611081;47;20423;-77
2023/12/19 00:23:18;;;;;;;22.50;15.97;;;;;;;;;;2611614;47;20424;-78
2023/12/19 00:25:44;;;;;;;21.07;13.77;;;;;;;;;;2611383;54;20526;-78
2023/12/19 00:28:11;;;;;;;21.83;12.50;;;;;;;;;;2611371;54;20435;-79
2023/12/19 00:30:37;;;;;;;19.73;12.93;;;;;;;;;;2610567;47;20410;-78
2023/12/19 00:33:03;;;;;;;14.80;10.47;;;;;;;;;;2611154;54;20421;-79
2023/12/19 00:35:29;;;;;;;16.10;12.37;;;;;;;;;;2611917;39;20823;-78
2023/12/19 00:37:55;;;;;;;19.80;12.30;;;;;;;;;;2611943;54;20422;-70
2023/12/19 00:40:21;;;;;;;18.77;11.50;;;;;;;;;;2611354;46;20547;-71
2023/12/19 00:42:47;;;;;;;18.87;13.87;;;;;;;;;;2611175;39;21248;-73
2023/12/19 00:45:13;;;;;;;22.03;15.70;;;;;;;;;;2610928;54;20991;-70
2023/12/19 00:47:39;;;;;;;15.77;11.83;;;;;;;;;;2611010;54;21322;-70
2023/12/19 00:50:07;;;;;;;17.93;10.70;;;;;;;;;;2611742;47;20424;-69
2023/12/19 00:52:33;;;;;;;21.23;14.17;;;;;;;;;;2610215;54;20964;-70
2023/12/19 00:54:59;;;;;;;19.27;13.37;;;;;;;;;;2611107;54;20535;-72
2023/12/19 00:57:25;;;;;;;24.23;12.30;;;;;;;;;;2611894;39;20879;-70
2023/12/19 00:59:51;;;;;;;22.87;16.30;;;;;;;;;;2610895;47;20511;-70
2023/12/19 01:02:18;;;;;;;23.90;17.53;;;;;;;;;;2611717;54;20450;-69
2023/12/19 01:04:44;;;;;;;12.50;8.83;;;;;;;;;;2609972;54;20982;-70
2023/12/19 01:07:10;;;;;;;26.30;15.90;;;;;;;;;;2610636;47;21185;-71
2023/12/19 01:09:36;;;;;;;20.53;14.27;;;;;;;;;;2611338;54;20432;-69
2023/12/19 01:12:03;;;;;;;16.13;10.80;;;;;;;;;;2610185;54;20398;-70
2023/12/19 01:14:29;;;;;;;29.30;20.20;;;;;;;;;;2611579;54;20438;-70
2023/12/19 01:16:55;;;;;;;27.90;17.47;;;;;;;;;;2611576;54;21010;-71
2023/12/19 01:19:21;;;;;;;22.27;14.60;;;;;;;;;;2611771;54;20996;-72
2023/12/19 01:21:47;;;;;;;21.30;14.50;;;;;;;;;;2612177;47;20502;-73
2023/12/19 01:24:13;;;;;;;22.70;15.10;;;;;;;;;;2611624;54;20465;-74
2023/12/19 01:26:39;;;;;;;22.30;14.63;;;;;;;;;;2611367;47;20434;-73
2023/12/19 01:29:05;;;;;;;22.83;16.70;;;;;;;;;;2611981;54;20439;-73
2023/12/19 01:31:31;;;;;;;24.00;15.13;;;;;;;;;;2611564;54;20435;-73
2023/12/19 01:33:57;;;;;;;18.77;13.60;;;;;;;;;;2611213;47;20424;-75
2023/12/19 01:36:23;;;;;;;16.23;10.87;;;;;;;;;;2610995;54;20426;-73
2023/12/19 01:38:49;;;;;;;23.23;16.60;;;;;;;;;;2611928;54;20430;-72
2023/12/19 01:41:15;;;;;;;22.50;13.33;;;;;;;;;;2612535;47;20531;-73
2023/12/19 01:43:42;;;;;;;18.23;13.37;;;;;;;;;;2612416;54;20533;-74
2023/12/19 01:46:13;;;;;;;16.70;13.17;;;;;;;;;;2612516;54;20423;-74
2023/12/19 01:48:39;;;;;;;23.90;14.30;;;;;;;;;;2611923;47;20450;-74
2023/12/19 01:51:05;;;;;;;16.87;12.97;;;;;;;;;;2612101;54;20454;-74
2023/12/19 01:53:32;;;;;;;14.47;10.30;;;;;;;;;;2611810;54;20423;-73
2023/12/19 01:55:58;;;;;;;22.17;12.77;;;;;;;;;;2612438;54;20454;-73
2023/12/19 01:58:27;;;;;;;18.30;14.13;;;;;;;;;;2612823;54;20435;-74
2023/12/19 02:00:53;;;;;;;25.10;11.87;;;;;;;;;;2611451;54;20518;-73
2023/12/19 02:03:20;;;;;;;19.27;13.50;;;;;;;;;;2611288;54;20992;-72
2023/12/19 02:08:51;;;;;;;17.60;12.53;;;;;;;;;;2615694;54;20403;-80
2023/12/19 02:14:20;;;;;;;22.00;13.67;;;;;;;;;;2615259;54;20419;-80
2023/12/19 02:25:22;;;;;;;18.50;12.83;;;;;;;;;;2610969;54;20411;-73
2023/12/19 02:30:52;;;;;;;20.53;13.80;;;;;;;;;;2614316;39;20919;-76
2023/12/19 02:36:21;;;;;;;20.07;14.67;;;;;;;;;;2615103;54;20480;-76
2023/12/19 02:41:51;;;;;;;18.50;13.67;;;;;;;;;;2614599;54;20476;-77
2023/12/19 02:47:20;;;;;;;21.33;14.27;;;;;;;;;;2614525;54;20407;-75
2023/12/19 02:52:50;;;;;;;17.53;11.17;;;;;;;;;;2615089;39;20730;-76
2023/12/19 02:58:20;;;;;;;20.03;13.70;;;;;;;;;;2613765;54;20375;-76
2023/12/19 03:03:50;;;;;;;12.67;9.57;;;;;;;;;;2614916;54;20504;-76
2023/12/19 03:09:19;;;;;;;26.73;15.33;;;;;;;;;;2614967;39;20791;-76
2023/12/19 03:14:49;;;;;;;17.80;12.60;;;;;;;;;;2615326;54;20395;-76
2023/12/19 03:26:26;;;;;;;25.03;15.60;;;;;;;;;;2614955;54;20440;-75
2023/12/19 03:31:55;;;;;;;29.90;17.17;;;;;;;;;;2614934;54;20399;-76
2023/12/19 03:37:25;;;;;;;36.07;20.53;;;;;;;;;;2614429;54;20355;-74
2023/12/19 03:42:55;;;;;;;22.20;12.50;;;;;;;;;;2613587;54;20379;-74
2023/12/19 03:48:25;;;;;;;25.10;15.33;;;;;;;;;;2612594;54;20411;-74
2023/12/19 03:53:54;;;;;;;28.13;18.13;;;;;;;;;;2613601;54;20382;-74
2023/12/19 03:59:24;;;;;;;31.67;19.87;;;;;;;;;;2614120;54;20367;-75
2023/12/19 04:04:54;;;;;;;40.17;19.83;;;;;;;;;;2614295;54;20402;-74
2023/12/19 04:10:23;;;;;;;31.30;18.00;;;;;;;;;;2612830;54;20415;-73
2023/12/19 04:15:53;;;;;;;25.43;17.03;;;;;;;;;;2613620;54;20382;-73
2023/12/19 04:24:57;;;;;;;20.80;13.10;;;;;;;;;;2613018;54;20432;-74
2023/12/19 04:30:27;;;;;;;22.63;14.57;;;;;;;;;;2611847;54;20405;-73
2023/12/19 04:35:57;;;;;;;23.70;15.33;;;;;;;;;;2612432;46;20840;-74
2023/12/19 04:41:26;;;;;;;22.63;13.67;;;;;;;;;;2614220;54;20391;-72
2023/12/19 04:46:56;;;;;;;19.07;13.30;;;;;;;;;;2612486;54;20388;-73
2023/12/19 04:52:26;;;;;;;14.93;11.17;;;;;;;;;;2613926;39;20846;-72
2023/12/19 04:57:56;;;;;;;16.20;9.80;;;;;;;;;;2613088;39;20772;-73
2023/12/19 05:03:26;;;;;;;17.20;11.40;;;;;;;;;;2612903;54;20406;-73
2023/12/19 05:08:55;;;;;;;14.80;9.03;;;;;;;;;;2613531;54;20394;-73
2023/12/19 05:14:25;;;;;;;15.63;10.63;;;;;;;;;;2613038;54;20382;-74
2023/12/19 05:19:55;;;;;;;10.37;5.70;;;;;;;;;;2614073;54;20384;-73
2023/12/19 05:25:24;;;;;;;11.53;8.83;;;;;;;;;;2614374;54;20521;-73
2023/12/19 05:30:56;;;;;;;12.63;10.33;;;;;;;;;;2613378;54;20391;-72
2023/12/19 05:36:26;;;;;;;14.87;9.20;;;;;;;;;;2613660;54;20989;-72
2023/12/19 05:41:56;;;;;;;14.03;10.03;;;;;;;;;;2614179;54;20434;-74
2023/12/19 05:47:25;;;;;;;11.90;9.00;;;;;;;;;;2612536;54;20464;-74
2023/12/19 05:52:55;;;;;;;10.80;7.27;;;;;;;;;;2612640;54;20375;-74
2023/12/19 05:58:24;;;;;;;10.40;6.80;;;;;;;;;;2612650;54;20391;-74
2023/12/19 06:03:54;;;;;;;12.17;8.40;;;;;;;;;;2611827;54;20371;-74
2023/12/19 06:09:24;;;;;;;16.60;9.70;;;;;;;;;;2612791;47;20474;-73
2023/12/19 06:14:53;;;;;;;15.67;10.73;;;;;;;;;;2612135;54;20424;-74
2023/12/19 06:20:23;;;;;;;11.27;8.57;;;;;;;;;;2612361;46;20396;-73
2023/12/19 06:25:54;;;;;;;20.93;14.40;;;;;;;;;;2612675;54;20363;-74
2023/12/19 06:31:23;;;;;;;13.43;9.33;;;;;;;;;;2611920;54;20355;-74
2023/12/19 06:36:53;;;;;;;18.20;12.67;;;;;;;;;;2611830;54;20370;-74
2023/12/19 06:42:23;;;;;;;23.33;15.73;;;;;;;;;;2612668;54;21167;-74
2023/12/19 06:47:52;;;;;;;14.23;10.07;;;;;;;;;;2612636;54;20383;-73
2023/12/19 06:53:22;;;;;;;20.40;13.40;;;;;;;;;;2613816;54;20355;-75
2023/12/19 06:58:52;;;;;;;19.70;12.13;;;;;;;;;;2614244;54;20396;-75
2023/12/19 07:04:21;;;;;;;13.03;8.73;;;;;;;;;;2613214;54;20394;-74
2023/12/19 07:09:51;;;;;;;17.23;10.73;;;;;;;;;;2611693;54;21008;-74
2023/12/19 07:15:21;;;;;;;24.00;15.33;;;;;;;;;;2613061;54;20366;-74
2023/12/19 07:26:58;;;;;;;15.67;13.03;;;;;;;;;;2614601;54;20454;-74
2023/12/19 07:29:30;;;;;;;17.77;11.50;;;;;;;;;;2612636;54;20407;-74
2023/12/19 07:34:59;;;;;;;17.70;11.40;;;;;;;;;;2612629;54;20359;-75
2023/12/19 07:40:29;;;;;;;20.33;13.10;;;;;;;;;;2611772;54;20499;-75
2023/12/19 07:45:59;;;;;;;18.67;11.27;;;;;;;;;;2612396;54;20511;-75
2023/12/19 07:51:29;;;;;;;19.23;12.43;;;;;;;;;;2611387;54;20960;-75
2023/12/19 07:56:58;;;;;;;13.40;9.13;;;;;;;;;;2612793;54;20407;-76
2023/12/19 08:02:28;;;;;;;18.53;12.03;;;;;;;;;;2612274;54;20388;-73
2023/12/19 08:07:58;;;;;;;13.37;9.40;;;;;;;;;;2612472;54;20369;-74
2023/12/19 08:13:27;;;;;;;19.37;12.90;;;;;;;;;;2614241;39;20769;-76
2023/12/19 08:18:57;;;;;;;17.90;12.83;;;;;;;;;;2613906;54;20379;-77
2023/12/19 08:24:27;;;;;;;20.70;13.33;;;;;;;;;;2615556;54;20402;-78
2023/12/19 08:29:56;;;;;;;17.30;12.27;;;;;;;;;;2615456;39;20891;-77
2023/12/19 08:35:25;;;;;;;17.33;12.20;;;;;;;;;;2614639;39;20746;-77
2023/12/19 08:40:55;;;;;;;14.13;10.33;;;;;;;;;;2615151;39;20900;-78
2023/12/19 08:46:25;;;;;;;13.53;9.43;;;;;;;;;;2614556;54;20554;-78
2023/12/19 08:51:55;;;;;;;21.50;11.33;;;;;;;;;;2613131;54;20391;-77
2023/12/19 08:57:24;;;;;;;19.60;12.90;;;;;;;;;;2614939;54;20475;-78
2023/12/19 09:02:54;;;;;;;20.70;13.67;;;;;;;;;;2615336;54;20415;-77
2023/12/19 09:08:24;;;;;;;18.00;12.87;;;;;;;;;;2614911;54;20417;-77
2023/12/19 09:13:53;;;;;;;16.57;12.07;;;;;;;;;;2614814;54;20384;-77
2023/12/19 09:19:23;;;;;;;13.60;11.27;;;;;;;;;;2615187;54;20416;-76
2023/12/19 09:24:53;;;;;;;12.47;10.10;;;;;;;;;;2615859;39;20767;-76
2023/12/19 09:34:01;;;;;;;14.87;9.93;;;;;;;;;;2615899;54;20404;-75
2023/12/19 09:39:30;;;;;;;13.27;9.57;;;;;;;;;;2615538;54;20410;-75
2023/12/19 09:45:00;;;;;;;14.90;10.10;;;;;;;;;;2615408;54;20354;-77
2023/12/19 09:50:30;;;;;;;15.30;10.80;;;;;;;;;;2615714;54;20363;-76
2023/12/19 09:56:00;;;;;;;13.23;10.93;;;;;;;;;;2615593;54;20392;-76
2023/12/19 10:01:30;;;;;;;12.60;9.33;;;;;;;;;;2615809;54;20508;-76
2023/12/19 10:07:00;;;;;;;14.43;9.37;;;;;;;;;;2616767;46;20391;-75
2023/12/19 10:12:31;;;;;;;12.67;10.33;;;;;;;;;;2616642;39;20852;-75
2023/12/19 10:18:05;;;;;;;14.80;11.80;;;;;;;;;;2616373;54;20914;-75
2023/12/19 10:23:35;;;;;;;14.60;9.93;;;;;;;;;;2616456;46;20403;-76
2023/12/19 10:29:05;;;;;;;12.73;9.33;;;;;;;;;;2616138;54;20966;-75
2023/12/19 10:34:35;;;;;;;15.20;10.60;;;;;;;;;;2613474;54;20404;-73
2023/12/19 10:40:12;;;;;;;12.03;9.40;;;;;;;;;;2613398;54;20403;-74
2023/12/19 10:45:44;;;;;;;12.00;8.90;;;;;;;;;;2613921;54;20394;-74
2023/12/19 10:51:20;;;;;;;9.60;8.00;;;;;;;;;;2613284;54;20387;-75
2023/12/19 10:56:59;;;;;;;9.20;6.40;;;;;;;;;;2613960;54;20408;-74
2023/12/19 11:02:35;;;;;;;9.57;6.60;;;;;;;;;;2613428;54;20364;-74
2023/12/19 11:08:07;;;;;;;6.27;4.37;;;;;;;;;;2613560;54;20391;-74
2023/12/19 11:13:41;;;;;;;8.97;7.00;;;;;;;;;;2612717;54;20953;-73
2023/12/19 11:19:17;;;;;;;7.43;5.80;;;;;;;;;;2613864;39;20873;-74
2023/12/19 11:25:09;;;;;;;8.87;6.20;;;;;;;;;;2613894;54;20374;-74
2023/12/19 11:34:04;;;;;;;5.50;4.77;;;;;;;;;;2614080;31;20912;-74
2023/12/19 11:39:40;;;;;;;8.40;5.40;;;;;;;;;;2614212;54;20359;-74
2023/12/19 11:45:15;;;;;;;7.40;5.17;;;;;;;;;;2612076;39;20528;-74
2023/12/19 11:50:46;;;;;;;6.07;4.50;;;;;;;;;;2613267;39;20768;-75
2023/12/19 11:56:15;;;;;;;4.83;3.87;;;;;;;;;;2615010;54;20438;-76
2023/12/19 12:01:45;;;;;;;7.43;5.77;;;;;;;;;;2615188;54;20387;-76
2023/12/19 12:07:15;;;;;;;8.03;5.87;;;;;;;;;;2614438;54;20418;-75
2023/12/19 12:12:44;;;;;;;8.70;4.70;;;;;;;;;;2614793;54;20472;-75
2023/12/19 12:18:14;;;;;;;7.87;6.47;;;;;;;;;;2614772;54;20492;-76
2023/12/19 12:23:43;;;;;;;7.80;5.80;;;;;;;;;;2614049;54;20512;-77
2023/12/19 12:29:13;;;;;;;5.90;4.80;;;;;;;;;;2614574;54;20387;-75
2023/12/19 12:34:45;;;;;;;8.47;5.33;;;;;;;;;;2615012;54;20420;-76
2023/12/19 12:40:15;;;;;;;5.40;3.10;;;;;;;;;;2615054;54;21025;-76
2023/12/19 12:45:45;;;;;;;4.70;4.20;;;;;;;;;;2615680;31;20897;-76
2023/12/19 12:51:17;;;;;;;4.23;3.77;;;;;;;;;;2615026;31;20822;-76
2023/12/19 12:56:46;;;;;;;5.30;4.77;;;;;;;;;;2613215;54;20450;-75
2023/12/19 13:02:16;;;;;;;6.40;4.83;;;;;;;;;;2613503;54;20500;-74
2023/12/19 13:07:46;;;;;;;6.30;4.80;;;;;;;;;;2613454;54;20388;-77
2023/12/19 13:13:15;;;;;;;5.53;4.70;;;;;;;;;;2614541;54;20440;-76
2023/12/19 13:18:45;;;;;;;4.50;3.53;;;;;;;;;;2614946;54;20367;-76
2023/12/19 13:24:15;;;;;;;7.50;4.80;;;;;;;;;;2614054;46;20401;-77
2023/12/19 13:35:52;;;;;;;5.17;3.13;;;;;;;;;;2614255;39;20755;-76
2023/12/19 13:41:21;;;;;;;8.20;4.40;;;;;;;;;;2615091;39;20869;-76
2023/12/19 13:46:51;;;;;;;4.40;3.50;;;;;;;;;;2614295;39;20469;-76
2023/12/19 13:52:21;;;;;;;6.50;4.40;;;;;;;;;;2614779;54;20444;-75
2023/12/19 13:57:51;;;;;;;5.80;3.90;;;;;;;;;;2615808;39;20800;-76
2023/12/19 14:03:22;;;;;;;5.20;3.83;;;;;;;;;;2615182;54;20389;-75
2023/12/19 14:08:52;;;;;;;7.50;5.20;;;;;;;;;;2613960;54;21025;-74
2023/12/19 14:14:21;;;;;;;7.53;4.60;;;;;;;;;;2613650;54;21028;-75
2023/12/19 14:19:51;;;;;;;5.50;4.10;;;;;;;;;;2613317;39;20731;-74
2023/12/19 14:25:21;;;;;;;5.57;4.33;;;;;;;;;;2613578;46;20404;-75
2023/12/19 14:36:58;;;;;;;5.20;2.77;;;;;;;;;;2613420;54;20376;-75
2023/12/19 14:42:28;;;;;;;5.77;3.40;;;;;;;;;;2613303;54;20340;-75
2023/12/19 14:47:57;;;;;;;4.80;3.37;;;;;;;;;;2612483;54;20377;-75
2023/12/19 14:53:27;;;;;;;6.60;3.70;;;;;;;;;;2612849;54;20388;-75
2023/12/19 14:58:57;;;;;;;3.57;2.67;;;;;;;;;;2612649;54;20372;-75
2023/12/19 15:04:27;;;;;;;6.10;3.50;;;;;;;;;;2612889;54;20384;-75
2023/12/19 15:09:56;;;;;;;5.23;3.03;;;;;;;;;;2613785;31;20863;-75
2023/12/19 15:15:26;;;;;;;2.53;2.20;;;;;;;;;;2613062;54;20355;-75
2023/12/19 15:20:56;;;;;;;3.77;2.60;;;;;;;;;;2613427;54;20982;-74
2023/12/19 15:26:26;;;;;;;4.30;3.27;;;;;;;;;;2613010;39;20448;-75
2023/12/19 15:32:14;;;;;;;4.30;3.20;;;;;;;;;;2614122;39;20848;-74
2023/12/19 15:37:44;;;;;;;6.23;4.43;;;;;;;;;;2612602;54;20384;-74
2023/12/19 15:43:13;;;;;;;5.67;2.97;;;;;;;;;;2611781;54;20391;-75
2023/12/19 15:48:46;;;;;;;6.43;3.80;;;;;;;;;;2612437;31;20823;-75
2023/12/19 15:54:16;;;;;;;3.37;3.00;;;;;;;;;;2612925;54;20386;-76
2023/12/19 15:59:46;;;;;;;4.50;2.73;;;;;;;;;;2612786;54;20479;-74
2023/12/19 16:05:17;;;;;;;2.93;2.60;;;;;;;;;;2611071;54;20392;-75
2023/12/19 16:08:03;;;;;;;4.30;3.90;;;;;;;;;;2612759;39;20902;-75
2023/12/19 16:10:29;;;;;;;10.77;6.03;;;;;;;;;;2612872;54;20528;-75
2023/12/19 16:15:58;;;;;;;6.00;4.20;;;;;;;;;;2612406;54;20417;-74
2023/12/19 16:21:28;;;;;;;6.00;3.10;;;;;;;;;;2610981;54;20360;-75
2023/12/19 16:26:58;;;;;;;7.03;4.20;;;;;;;;;;2613847;54;20412;-73
2023/12/19 16:36:05;;;;;;;6.43;4.63;;;;;;;;;;2610098;54;20418;-76
2023/12/19 16:41:34;;;;;;;6.00;4.80;;;;;;;;;;2612541;54;20373;-75
2023/12/19 16:47:04;;;;;;;5.90;5.30;;;;;;;;;;2611022;47;20356;-75
2023/12/19 16:52:35;;;;;;;5.27;4.23;;;;;;;;;;2612442;54;20388;-75
2023/12/19 16:58:06;;;;;;;5.90;5.30;;;;;;;;;;2611580;54;20377;-74
2023/12/19 17:03:36;;;;;;;8.40;5.60;;;;;;;;;;2612550;54;20362;-74
2023/12/19 17:09:06;;;;;;;6.80;5.03;;;;;;;;;;2612366;39;20784;-75
2023/12/19 17:14:37;;;;;;;11.40;6.37;;;;;;;;;;2612446;54;20384;-75
2023/12/19 17:20:07;;;;;;;7.07;4.73;;;;;;;;;;2612953;54;20368;-74
2023/12/19 17:25:37;;;;;;;5.83;5.20;;;;;;;;;;2613268;54;20945;-73
2023/12/19 17:31:07;;;;;;;7.10;4.90;;;;;;;;;;2613934;54;20391;-74
2023/12/19 17:36:37;;;;;;;19.50;10.90;;;;;;;;;;2611373;54;20393;-75
2023/12/19 17:42:07;;;;;;;14.23;5.60;;;;;;;;;;2613298;54;20388;-75
2023/12/19 17:47:36;;;;;;;8.73;5.00;;;;;;;;;;2612926;54;20388;-75
2023/12/19 17:53:06;;;;;;;6.73;4.73;;;;;;;;;;2612892;54;20381;-74
2023/12/19 17:58:36;;;;;;;2.03;1.07;;;;;;;;;;2611829;54;20540;-75
2023/12/19 18:04:06;;;;;;;7.90;5.60;;;;;;;;;;2611343;54;20413;-75
2023/12/19 18:09:35;;;;;;;7.80;5.00;;;;;;;;;;2612474;54;20372;-76
2023/12/19 18:15:06;;;;;;;8.10;6.50;;;;;;;;;;2611875;54;20389;-75
2023/12/19 18:20:35;;;;;;;8.63;6.27;;;;;;;;;;2610638;54;20429;-74
2023/12/19 18:26:06;;;;;;;11.87;8.10;;;;;;;;;;2611286;54;20513;-75
2023/12/19 18:31:36;;;;;;;4.60;2.77;;;;;;;;;;2612015;54;20356;-74
2023/12/19 18:37:06;;;;;;;7.90;5.07;;;;;;;;;;2612470;39;20874;-74
2023/12/19 18:42:36;;;;;;;6.40;2.90;;;;;;;;;;2612128;54;20351;-75
2023/12/19 18:48:06;;;;;;;12.40;9.30;;;;;;;;;;2612957;54;20413;-74
2023/12/19 18:53:35;;;;;;;10.20;8.40;;;;;;;;;;2613076;54;20387;-75
2023/12/19 18:59:05;;;;;;;8.80;6.80;;;;;;;;;;2612991;54;20433;-75
2023/12/19 19:04:35;;;;;;;10.77;7.80;;;;;;;;;;2614604;54;20428;-75
2023/12/19 19:10:07;;;;;;;6.87;5.30;;;;;;;;;;2612833;54;21024;-75
2023/12/19 19:15:37;;;;;;;8.40;6.87;;;;;;;;;;2613940;54;20392;-75
2023/12/19 19:21:09;;;;;;;11.77;8.80;;;;;;;;;;2613865;54;20414;-75
2023/12/19 19:26:39;;;;;;;1.53;1.13;;;;;;;;;;2612656;54;20394;-75
2023/12/19 19:38:22;;;;;;;12.27;8.70;;;;;;;;;;2613822;54;20396;-76
2023/12/19 19:43:54;;;;;;;11.07;8.37;;;;;;;;;;2613576;54;20387;-76
2023/12/19 19:49:24;;;;;;;12.50;9.17;;;;;;;;;;2613984;54;20395;-76
2023/12/19 19:54:56;;;;;;;3.27;1.97;;;;;;;;;;2612390;54;20391;-76
2023/12/19 20:00:26;;;;;;;0.90;0.63;;;;;;;;;;2612894;54;20981;-75
2023/12/19 20:05:55;;;;;;;1.70;1.10;;;;;;;;;;2612974;54;20382;-76
2023/12/19 20:11:25;;;;;;;2.47;1.20;;;;;;;;;;2613628;54;20395;-76
2023/12/19 20:16:55;;;;;;;22.10;14.70;;;;;;;;;;2613647;54;20373;-76
2023/12/19 20:22:24;;;;;;;16.07;10.87;;;;;;;;;;2613366;54;20365;-76
2023/12/19 20:27:54;;;;;;;15.03;9.67;;;;;;;;;;2612962;54;20388;-76
2023/12/19 20:39:31;;;;;;;14.30;11.30;;;;;;;;;;2613757;54;20379;-74
2023/12/19 20:45:00;;;;;;;15.90;11.07;;;;;;;;;;2614109;31;20895;-75
2023/12/19 20:50:30;;;;;;;20.80;12.83;;;;;;;;;;2613830;39;20863;-75
2023/12/19 20:56:00;;;;;;;17.07;11.17;;;;;;;;;;2613114;39;20827;-76
2023/12/19 21:01:31;;;;;;;22.50;13.50;;;;;;;;;;2612911;54;20425;-76
2023/12/19 21:07:01;;;;;;;19.60;13.20;;;;;;;;;;2612994;54;20382;-76
2023/12/19 21:12:31;;;;;;;17.40;11.17;;;;;;;;;;2612481;54;20422;-75
2023/12/19 21:18:01;;;;;;;21.93;14.57;;;;;;;;;;2612842;54;20850;-75
2023/12/19 21:23:31;;;;;;;23.07;14.63;;;;;;;;;;2611050;54;21016;-75
2023/12/19 21:29:00;;;;;;;21.00;12.83;;;;;;;;;;2611786;54;20422;-75
2023/12/19 21:34:49;;;;;;;23.93;15.17;;;;;;;;;;2610877;54;20459;-74
2023/12/19 21:40:18;;;;;;;21.93;13.90;;;;;;;;;;2611951;54;20977;-74
2023/12/19 21:45:48;;;;;;;32.57;18.57;;;;;;;;;;2611888;54;20359;-75
2023/12/19 21:51:18;;;;;;;35.17;19.27;;;;;;;;;;2612213;54;20427;-75
2023/12/19 21:56:48;;;;;;;26.73;16.40;;;;;;;;;;2610755;54;20360;-76
2023/12/19 22:02:18;;;;;;;26.30;17.87;;;;;;;;;;2610996;54;20367;-75
2023/12/19 22:07:49;;;;;;;27.93;16.13;;;;;;;;;;2613517;54;20411;-74
2023/12/19 22:13:19;;;;;;;38.53;20.73;;;;;;;;;;2613924;54;20931;-73
2023/12/19 22:18:48;;;;;;;29.73;18.20;;;;;;;;;;2613295;39;20771;-73
2023/12/19 22:24:18;;;;;;;38.53;22.43;;;;;;;;;;2611289;54;20449;-73
2023/12/19 22:29:48;;;;;;;40.20;23.63;;;;;;;;;;2613331;54;20417;-75
2023/12/19 22:38:59;;;;;;;39.63;20.13;;;;;;;;;;2612455;54;20406;-75
2023/12/19 22:44:28;;;;;;;38.17;21.90;;;;;;;;;;2615547;54;20513;-76
2023/12/19 22:49:58;;;;;;;29.67;20.93;;;;;;;;;;2615352;39;20758;-75
2023/12/19 22:55:33;;;;;;;40.53;23.80;;;;;;;;;;2614370;54;20504;-75
2023/12/19 23:01:02;;;;;;;47.67;25.10;;;;;;;;;;2613019;54;20517;-75
2023/12/19 23:06:33;;;;;;;47.70;26.73;;;;;;;;;;2613853;54;20386;-74
2023/12/19 23:12:03;;;;;;;47.83;24.47;;;;;;;;;;2614812;54;20420;-75
2023/12/19 23:17:33;;;;;;;32.00;19.70;;;;;;;;;;2614388;54;20377;-74
2023/12/19 23:23:03;;;;;;;40.57;21.57;;;;;;;;;;2614433;54;20376;-75
2023/12/19 23:28:32;;;;;;;30.20;15.93;;;;;;;;;;2611285;54;20417;-73
2023/12/19 23:34:03;;;;;;;34.73;19.70;;;;;;;;;;2613473;54;20400;-74
2023/12/19 23:39:32;;;;;;;31.73;17.37;;;;;;;;;;2613565;54;20483;-74
2023/12/19 23:45:02;;;;;;;28.00;16.57;;;;;;;;;;2614111;54;20376;-74
2023/12/19 23:50:32;;;;;;;31.40;18.40;;;;;;;;;;2614571;54;20415;-74
2023/12/19 23:56:03;;;;;;;34.83;18.10;;;;;;;;;;2613710;54;20359;-74
